createdAt,value
2022-11-02T00:01:45.567Z,12.20
2022-11-02T00:11:42.501Z,12.20
2022-11-02T00:19:26.424Z,12.10
2022-11-02T00:27:25.567Z,12.20
2022-11-02T00:37:28.730Z,12.10
2022-11-02T00:39:57.779Z,12.10
2022-11-02T00:50:00.301Z,11.70
2022-11-02T00:57:29.787Z,13.30
2022-11-02T01:02:27.397Z,11.40
2022-11-02T01:07:25.089Z,11.40
2022-11-02T01:09:53.674Z,11.40
2022-11-02T01:12:22.993Z,11.40
2022-11-02T01:22:28.046Z,11.20
2022-11-02T01:47:25.948Z,11.20
2022-11-02T01:49:58.785Z,11.30
2022-11-02T01:52:32.011Z,11.30
2022-11-02T01:55:04.826Z,11.30
2022-11-02T01:57:34.515Z,11.40
2022-11-02T02:00:08.482Z,11.50
2022-11-02T02:02:44.085Z,11.50
2022-11-02T02:05:15.925Z,11.60
2022-11-02T02:10:13.430Z,11.60
2022-11-02T02:12:44.570Z,11.70
2022-11-02T02:15:14.574Z,11.70
2022-11-02T02:17:51.639Z,11.60
2022-11-02T02:20:35.264Z,11.70
2022-11-02T02:23:33.042Z,11.60
2022-11-02T02:26:32.557Z,11.50
2022-11-02T02:29:07.089Z,11.60
2022-11-02T02:31:39.807Z,11.50
2022-11-02T02:34:16.414Z,11.50
2022-11-02T02:36:49.971Z,11.50
2022-11-02T02:39:25.678Z,11.50
2022-11-02T02:42:00.315Z,11.50
2022-11-02T02:44:35.690Z,11.60
2022-11-02T02:47:09.879Z,11.60
2022-11-02T02:49:42.969Z,11.50
2022-11-02T02:54:44.076Z,11.50
2022-11-02T02:57:19.880Z,11.50
2022-11-02T02:59:50.377Z,11.60
2022-11-02T03:02:22.205Z,11.70
2022-11-02T03:04:50.493Z,13.70
2022-11-02T03:07:22.040Z,11.70
2022-11-02T03:09:54.851Z,11.80
2022-11-02T03:12:30.636Z,11.80
2022-11-02T03:15:11.316Z,11.80
2022-11-02T03:17:48.026Z,11.80
2022-11-02T03:20:26.844Z,11.90
2022-11-02T03:23:08.710Z,11.90
2022-11-02T03:25:44.976Z,12.00
2022-11-02T03:28:17.701Z,12.10
2022-11-02T03:30:54.032Z,12.10
2022-11-02T03:33:30.827Z,12.20
2022-11-02T03:36:05.831Z,12.20
2022-11-02T03:38:38.250Z,12.20
2022-11-02T03:41:07.736Z,12.20
2022-11-02T03:43:37.785Z,12.20
2022-11-02T03:46:09.851Z,12.30
2022-11-02T03:48:42.172Z,12.20
2022-11-02T03:51:14.828Z,12.20
2022-11-02T03:53:49.397Z,12.20
2022-11-02T03:56:23.375Z,12.20
2022-11-02T03:58:52.913Z,12.10
2022-11-02T04:08:50.406Z,12.00
2022-11-02T04:14:21.430Z,11.90
2022-11-02T04:19:38.327Z,11.80
2022-11-02T04:22:24.250Z,11.70
2022-11-02T04:27:38.146Z,11.60
2022-11-02T04:30:07.222Z,11.60
2022-11-02T04:35:26.525Z,11.60
2022-11-02T04:40:40.819Z,11.50
2022-11-02T04:48:09.353Z,11.40
2022-11-02T04:50:38.041Z,11.40
2022-11-02T04:53:08.394Z,11.40
2022-11-02T05:05:35.216Z,11.30
2022-11-02T05:13:01.210Z,11.30
2022-11-02T05:25:24.835Z,11.30
2022-11-02T05:35:18.319Z,11.20
2022-11-02T05:42:45.074Z,11.10
2022-11-02T06:23:18.441Z,10.90
2022-11-02T06:35:50.717Z,10.90
2022-11-02T06:38:19.683Z,10.90
2022-11-02T06:40:55.521Z,10.90
2022-11-02T06:48:35.373Z,11.00
2022-11-02T07:01:08.966Z,11.10
2022-11-02T07:06:11.093Z,11.10
2022-11-02T07:18:43.534Z,11.30
2022-11-02T07:26:10.223Z,11.50
2022-11-02T08:01:19.517Z,12.30
2022-11-02T08:06:45.838Z,12.60
2022-11-02T08:12:11.991Z,12.90
2022-11-02T08:28:09.069Z,13.40
2022-11-02T08:33:13.528Z,13.40
2022-11-02T08:35:46.138Z,13.40
2022-11-02T08:43:15.204Z,13.80
2022-11-02T08:48:39.535Z,13.90
2022-11-02T08:51:11.396Z,14.00
2022-11-02T09:06:14.559Z,14.20
2022-11-02T09:19:10.246Z,14.60
2022-11-02T09:21:42.599Z,14.60
2022-11-02T09:35:14.307Z,15.00
2022-11-02T09:37:50.055Z,15.00
2022-11-02T09:40:25.203Z,15.00
2022-11-02T09:43:04.430Z,18.50
2022-11-02T09:45:37.073Z,14.80
2022-11-02T09:48:19.720Z,14.80
2022-11-02T09:50:59.221Z,14.70
2022-11-02T09:53:40.086Z,14.80
2022-11-02T09:56:10.309Z,14.70
2022-11-02T09:58:40.583Z,14.70
2022-11-02T10:01:35.465Z,14.60
2022-11-02T10:04:46.954Z,14.60
2022-11-02T10:07:24.881Z,14.40
2022-11-02T10:09:59.107Z,14.30
2022-11-02T10:12:39.472Z,14.20
2022-11-02T10:15:14.236Z,14.30
2022-11-02T10:18:30.016Z,14.20
2022-11-02T10:29:24.569Z,14.20
2022-11-02T10:31:57.252Z,14.20
2022-11-02T10:34:28.477Z,14.40
2022-11-02T10:37:45.698Z,14.40
2022-11-02T10:43:09.258Z,14.40
2022-11-02T10:46:25.276Z,14.40
2022-11-02T10:49:16.132Z,14.00
2022-11-02T10:57:18.743Z,14.50
2022-11-02T11:02:30.631Z,14.70
2022-11-02T11:05:19.277Z,14.70
2022-11-02T11:15:50.674Z,14.80
2022-11-02T11:26:32.546Z,14.90
2022-11-02T11:29:26.922Z,14.90
2022-11-02T11:35:08.945Z,14.90
2022-11-02T11:38:04.337Z,14.90
2022-11-02T11:40:37.148Z,14.80
2022-11-02T11:43:11.268Z,14.70
2022-11-02T11:45:39.905Z,14.80
2022-11-02T11:48:24.505Z,14.80
2022-11-02T11:54:13.417Z,14.80
2022-11-02T11:56:44.227Z,14.70
2022-11-02T11:59:24.521Z,14.80
2022-11-02T12:01:57.665Z,14.70
2022-11-02T12:04:32.998Z,14.80
2022-11-02T12:07:28.883Z,14.80
2022-11-02T12:10:06.686Z,14.60
2022-11-02T12:12:53.802Z,14.70
2022-11-02T12:19:10.766Z,14.80
2022-11-02T12:21:49.876Z,14.70
2022-11-02T12:24:46.962Z,14.60
2022-11-02T12:30:26.313Z,14.50
2022-11-02T12:33:22.566Z,14.40
2022-11-02T12:36:06.385Z,14.40
2022-11-02T12:39:08.667Z,14.40
2022-11-02T12:41:45.460Z,14.40
2022-11-02T12:44:36.327Z,14.40
2022-11-02T12:47:12.255Z,14.30
2022-11-02T12:49:50.936Z,14.30
2022-11-02T12:52:31.069Z,14.20
2022-11-02T12:55:01.389Z,14.20
2022-11-02T12:57:34.465Z,14.20
2022-11-02T13:00:07.146Z,14.20
2022-11-02T13:02:46.150Z,14.20
2022-11-02T13:05:19.017Z,14.20
2022-11-02T13:07:58.286Z,14.20
2022-11-02T13:10:31.451Z,14.20
2022-11-02T13:13:03.064Z,14.30
2022-11-02T13:15:35.662Z,14.40
2022-11-02T13:18:10.816Z,14.30
2022-11-02T13:20:44.886Z,14.30
2022-11-02T13:23:23.542Z,14.30
2022-11-02T13:25:55.529Z,14.20
2022-11-02T13:28:33.746Z,14.20
2022-11-02T13:33:44.654Z,14.00
2022-11-02T13:36:14.351Z,14.00
2022-11-02T13:38:48.082Z,14.10
2022-11-02T13:41:29.571Z,14.10
2022-11-02T13:44:21.324Z,16.40
2022-11-02T13:47:05.832Z,14.10
2022-11-02T13:49:38.684Z,14.10
2022-11-02T13:52:15.092Z,14.10
2022-11-02T13:54:48.084Z,14.10
2022-11-02T13:57:31.833Z,14.40
2022-11-02T14:02:32.132Z,14.00
2022-11-02T14:07:33.675Z,14.00
2022-11-02T14:10:09.568Z,14.00
2022-11-02T14:12:45.750Z,14.10
2022-11-02T14:15:42.245Z,14.30
2022-11-02T14:18:16.629Z,14.30
2022-11-02T14:20:46.652Z,12.20
2022-11-02T14:23:38.800Z,14.60
2022-11-02T14:26:33.045Z,14.60
2022-11-02T14:29:04.528Z,14.30
2022-11-02T14:31:50.350Z,14.60
2022-11-02T14:34:41.578Z,14.60
2022-11-02T14:37:44.566Z,14.60
2022-11-02T14:40:23.751Z,14.40
2022-11-02T14:43:38.439Z,14.30
2022-11-02T14:46:19.760Z,14.30
2022-11-02T14:48:50.984Z,14.20
2022-11-02T14:51:22.193Z,14.20
2022-11-02T14:53:55.521Z,14.20
2022-11-02T14:56:25.003Z,14.20
2022-11-02T14:58:59.211Z,15.30
2022-11-02T15:01:27.439Z,14.80
2022-11-02T15:03:56.453Z,14.00
2022-11-02T15:06:27.510Z,13.90
2022-11-02T15:08:57.826Z,13.90
2022-11-02T15:11:45.579Z,13.90
2022-11-02T15:19:39.961Z,13.80
2022-11-02T15:22:38.461Z,14.80
2022-11-02T15:25:14.056Z,13.70
2022-11-02T15:27:44.425Z,13.70
2022-11-02T15:30:17.784Z,13.50
2022-11-02T15:32:50.157Z,13.50
2022-11-02T15:35:22.084Z,13.40
2022-11-02T15:38:19.307Z,13.40
2022-11-02T15:40:52.259Z,13.30
2022-11-02T15:43:48.547Z,13.30
2022-11-02T15:46:29.764Z,15.60
2022-11-02T15:49:09.461Z,13.10
2022-11-02T15:51:47.044Z,13.00
2022-11-02T15:54:29.738Z,12.90
2022-11-02T15:57:12.408Z,12.90
2022-11-02T15:59:55.811Z,15.50
2022-11-02T16:02:33.033Z,12.80
2022-11-02T16:05:03.369Z,12.80
2022-11-02T16:10:27.119Z,12.70
2022-11-02T16:12:59.953Z,12.70
2022-11-02T16:15:29.281Z,12.60
2022-11-02T16:17:59.656Z,12.50
2022-11-02T16:20:29.545Z,12.40
2022-11-02T16:23:00.915Z,12.40
2022-11-02T16:25:38.571Z,12.30
2022-11-02T16:28:20.854Z,12.30
2022-11-02T16:31:17.297Z,12.10
2022-11-02T16:33:50.425Z,12.00
2022-11-02T16:36:20.524Z,12.00
2022-11-02T16:38:54.760Z,11.90
2022-11-02T16:46:30.851Z,11.60
2022-11-02T16:49:13.514Z,11.40
2022-11-02T16:51:42.079Z,12.70
2022-11-02T16:54:25.148Z,11.40
2022-11-02T16:56:54.463Z,11.40
2022-11-02T16:59:23.805Z,11.30
2022-11-02T17:01:52.005Z,11.40
2022-11-02T17:04:24.993Z,11.30
2022-11-02T17:06:57.097Z,11.30
2022-11-02T17:09:30.870Z,11.30
2022-11-02T17:12:01.196Z,11.10
2022-11-02T17:14:34.999Z,11.10
2022-11-02T17:17:18.134Z,11.00
2022-11-02T17:19:55.877Z,11.00
2022-11-02T17:22:26.468Z,10.90
2022-11-02T17:25:13.860Z,10.90
2022-11-02T17:27:46.280Z,10.90
2022-11-02T17:31:01.170Z,10.90
2022-11-02T17:33:33.766Z,10.80
2022-11-02T17:36:09.337Z,10.80
2022-11-02T17:46:27.873Z,10.60
2022-11-02T17:51:29.069Z,10.50
2022-11-02T18:10:25.623Z,10.30
2022-11-02T18:15:27.541Z,10.30
2022-11-02T18:24:12.430Z,10.10
2022-11-02T18:34:27.096Z,10.00
2022-11-02T18:39:47.252Z,10.00
2022-11-02T19:02:13.813Z,10.00
2022-11-02T19:07:43.345Z,10.00
2022-11-02T19:18:25.164Z,9.90
2022-11-02T19:48:22.104Z,9.60
2022-11-02T19:55:07.986Z,9.40
2022-11-02T20:01:44.225Z,9.40
2022-11-02T20:06:47.245Z,9.40
2022-11-02T20:15:14.496Z,9.30
2022-11-02T20:27:09.437Z,9.20
2022-11-02T20:43:42.662Z,9.20
2022-11-02T20:55:02.884Z,9.00
2022-11-02T20:57:34.756Z,9.00
2022-11-02T21:10:26.525Z,8.90
2022-11-02T21:13:14.079Z,10.00
2022-11-02T21:15:43.875Z,8.90
2022-11-02T21:42:17.463Z,8.70
2022-11-02T21:49:43.942Z,8.60
2022-11-02T21:54:40.726Z,8.60
2022-11-02T22:07:05.263Z,8.60
2022-11-02T22:12:19.250Z,8.60
2022-11-02T22:17:22.067Z,8.50
2022-11-02T22:19:58.477Z,8.50
2022-11-02T22:22:27.703Z,8.40
2022-11-02T22:27:24.216Z,8.30
2022-11-02T22:29:52.520Z,8.30
2022-11-02T22:32:22.579Z,8.20
2022-11-02T22:42:39.775Z,8.10
2022-11-02T22:55:08.510Z,8.00
2022-11-02T22:57:36.726Z,8.00
2022-11-02T23:00:06.491Z,7.90
2022-11-02T23:02:34.620Z,7.90
2022-11-02T23:12:50.739Z,8.00
2022-11-02T23:17:49.714Z,7.90
2022-11-02T23:31:17.931Z,7.90
2022-11-02T23:39:02.031Z,7.70
2022-11-02T23:41:35.022Z,7.70
2022-11-02T23:44:12.924Z,7.70
2022-11-02T23:59:45.061Z,7.70
